createdAt,value
2019-02-11T00:00:22.331Z,0.95
2019-02-11T00:01:26.391Z,1.02
2019-02-11T00:02:29.969Z,0.90
2019-02-11T00:03:33.584Z,0.70
2019-02-11T00:04:37.230Z,0.62
2019-02-11T00:05:40.832Z,0.70
2019-02-11T00:06:44.501Z,0.90
2019-02-11T00:07:48.113Z,0.60
2019-02-11T00:08:51.727Z,0.75
2019-02-11T00:09:55.299Z,0.72
2019-02-11T00:10:59.725Z,0.70
2019-02-11T00:12:03.329Z,0.70
2019-02-11T00:13:10.645Z,0.68
2019-02-11T00:14:12.179Z,0.70
2019-02-11T00:15:15.768Z,0.70
2019-02-11T00:16:19.380Z,0.70
2019-02-11T00:17:23.074Z,0.70
2019-02-11T00:18:26.663Z,0.75
2019-02-11T00:19:30.251Z,0.60
2019-02-11T00:20:33.835Z,0.80
2019-02-11T00:21:37.411Z,0.60
2019-02-11T00:22:41.056Z,0.80
2019-02-11T00:23:44.631Z,0.80
2019-02-11T00:24:48.210Z,0.80
2019-02-11T00:25:51.789Z,0.70
2019-02-11T00:26:55.364Z,0.70
2019-02-11T00:27:59.061Z,0.72
2019-02-11T00:29:02.670Z,0.75
2019-02-11T00:30:09.311Z,0.80
2019-02-11T00:31:12.930Z,0.70
2019-02-11T00:32:16.505Z,0.88
2019-02-11T00:33:20.328Z,0.70
2019-02-11T00:34:23.943Z,0.80
2019-02-11T00:35:27.521Z,1.00
2019-02-11T00:36:31.102Z,0.72
2019-02-11T00:37:34.758Z,0.80
2019-02-11T00:38:38.396Z,0.80
2019-02-11T00:39:42.030Z,0.70
2019-02-11T00:40:45.613Z,0.90
2019-02-11T00:41:49.214Z,0.80
2019-02-11T00:42:52.788Z,1.00
2019-02-11T00:43:56.505Z,0.70
2019-02-11T00:45:00.188Z,0.80
2019-02-11T00:46:03.938Z,0.60
2019-02-11T00:47:07.535Z,0.80
2019-02-11T00:48:11.111Z,0.90
2019-02-11T00:49:14.753Z,1.00
2019-02-11T00:50:18.403Z,0.85
2019-02-11T00:51:22.000Z,0.90
2019-02-11T00:52:25.627Z,0.70
2019-02-11T00:53:29.249Z,1.00
2019-02-11T00:54:32.907Z,0.90
2019-02-11T00:55:36.508Z,0.80
2019-02-11T00:56:40.102Z,0.90
2019-02-11T00:57:43.730Z,1.02
2019-02-11T00:58:47.387Z,0.90
2019-02-11T00:59:50.984Z,0.90
2019-02-11T01:00:54.574Z,0.70
2019-02-11T01:01:58.169Z,1.10
2019-02-11T01:03:01.806Z,0.80
2019-02-11T01:04:05.386Z,0.70
2019-02-11T01:05:09.469Z,0.85
2019-02-11T01:06:13.044Z,0.90
2019-02-11T01:07:16.621Z,0.90
2019-02-11T01:08:20.195Z,0.70
2019-02-11T01:09:23.771Z,0.82
2019-02-11T01:10:27.396Z,0.80
2019-02-11T01:11:30.972Z,1.00
2019-02-11T01:12:34.611Z,0.80
2019-02-11T01:13:38.176Z,0.90
2019-02-11T01:14:41.770Z,0.85
2019-02-11T01:15:45.356Z,0.80
2019-02-11T01:16:48.935Z,1.05
2019-02-11T01:17:52.572Z,1.00
2019-02-11T01:18:56.190Z,1.00
2019-02-11T01:19:59.810Z,0.90
2019-02-11T01:21:03.377Z,0.90
2019-02-11T01:22:06.954Z,0.80
2019-02-11T01:23:10.553Z,0.82
2019-02-11T01:24:14.181Z,0.70
2019-02-11T01:25:17.789Z,0.80
2019-02-11T01:26:21.442Z,0.90
2019-02-11T01:27:25.012Z,0.80
2019-02-11T01:28:28.613Z,0.80
2019-02-11T01:29:32.258Z,0.90
2019-02-11T01:30:35.826Z,0.78
2019-02-11T01:31:39.400Z,0.80
2019-02-11T01:32:42.963Z,0.70
2019-02-11T01:33:46.546Z,0.68
2019-02-11T01:34:50.139Z,0.70
2019-02-11T01:35:54.025Z,0.70
2019-02-11T01:36:57.646Z,0.72
2019-02-11T01:38:01.250Z,0.80
2019-02-11T01:39:06.058Z,0.80
2019-02-11T01:40:10.901Z,0.80
2019-02-11T01:41:14.479Z,0.70
2019-02-11T01:42:18.115Z,0.80
2019-02-11T01:43:21.690Z,0.90
2019-02-11T01:44:25.285Z,0.80
2019-02-11T01:45:28.870Z,0.80
2019-02-11T01:46:32.451Z,0.90
2019-02-11T01:47:36.096Z,0.93
2019-02-11T01:48:39.684Z,0.90
2019-02-11T01:49:43.307Z,1.10
2019-02-11T01:50:46.919Z,1.12
2019-02-11T01:51:50.490Z,1.20
2019-02-11T01:52:54.124Z,1.17
2019-02-11T01:53:57.705Z,1.22
2019-02-11T01:55:01.292Z,1.00
2019-02-11T01:56:04.908Z,1.10
2019-02-11T01:57:08.512Z,1.45
2019-02-11T01:58:12.133Z,1.52
2019-02-11T01:59:15.709Z,1.50
2019-02-11T02:00:19.284Z,1.70
2019-02-11T02:01:22.932Z,1.47
2019-02-11T02:02:26.517Z,1.42
2019-02-11T02:03:30.123Z,2.02
2019-02-11T02:04:33.698Z,1.52
2019-02-11T02:05:37.346Z,1.40
2019-02-11T02:06:40.999Z,1.37
2019-02-11T02:07:44.682Z,1.60
2019-02-11T02:08:48.316Z,1.40
2019-02-11T02:09:51.941Z,1.65
2019-02-11T02:10:55.562Z,1.70
2019-02-11T02:11:59.139Z,1.98
2019-02-11T02:13:02.903Z,1.50
2019-02-11T02:14:06.559Z,1.70
2019-02-11T02:15:14.849Z,1.70
2019-02-11T02:16:18.434Z,2.47
2019-02-11T02:17:22.026Z,2.12
2019-02-11T02:18:25.614Z,1.80
2019-02-11T02:19:29.362Z,1.80
2019-02-11T02:20:33.006Z,2.05
2019-02-11T02:21:36.595Z,1.80
2019-02-11T02:22:40.189Z,1.75
2019-02-11T02:23:43.779Z,1.90
2019-02-11T02:24:47.352Z,1.87
2019-02-11T02:25:51.015Z,1.70
2019-02-11T02:26:54.590Z,2.15
2019-02-11T02:27:58.171Z,1.90
2019-02-11T02:29:01.770Z,2.33
2019-02-11T02:30:07.887Z,2.42
2019-02-11T02:31:11.520Z,2.12
2019-02-11T02:32:15.094Z,2.50
2019-02-11T02:33:18.799Z,2.20
2019-02-11T02:34:22.470Z,2.33
2019-02-11T02:35:26.042Z,2.45
2019-02-11T02:36:29.671Z,2.92
2019-02-11T02:37:33.299Z,2.55
2019-02-11T02:38:36.977Z,2.40
2019-02-11T02:39:40.591Z,2.33
2019-02-11T02:40:44.192Z,3.02
2019-02-11T02:41:47.762Z,3.00
2019-02-11T02:42:51.350Z,3.22
2019-02-11T02:43:55.972Z,3.15
2019-02-11T02:45:00.106Z,2.65
2019-02-11T02:46:03.869Z,2.65
2019-02-11T02:47:07.469Z,3.60
2019-02-11T02:48:11.040Z,3.00
2019-02-11T02:49:14.664Z,3.52
2019-02-11T02:50:18.265Z,3.35
2019-02-11T02:51:21.843Z,3.17
2019-02-11T02:52:25.454Z,2.80
2019-02-11T02:53:29.103Z,3.45
2019-02-11T02:54:32.671Z,2.90
2019-02-11T02:55:36.254Z,2.42
2019-02-11T02:56:39.823Z,2.90
2019-02-11T02:57:43.427Z,3.30
2019-02-11T02:58:47.058Z,3.00
2019-02-11T02:59:50.645Z,3.87
2019-02-11T03:00:54.213Z,3.55
2019-02-11T03:01:57.844Z,3.17
2019-02-11T03:03:01.416Z,3.00
2019-02-11T03:04:05.273Z,3.15
2019-02-11T03:05:09.610Z,3.35
2019-02-11T03:06:13.263Z,3.17
2019-02-11T03:07:16.912Z,3.75
2019-02-11T03:08:20.486Z,3.17
2019-02-11T03:09:24.157Z,3.30
2019-02-11T03:10:27.734Z,3.87
2019-02-11T03:11:31.304Z,3.20
2019-02-11T03:12:34.928Z,3.65
2019-02-11T03:13:38.509Z,4.00
2019-02-11T03:14:42.090Z,4.00
2019-02-11T03:15:45.670Z,3.90
2019-02-11T03:16:49.303Z,4.80
2019-02-11T03:17:52.955Z,4.05
2019-02-11T03:18:56.601Z,5.03
2019-02-11T03:20:00.280Z,4.42
2019-02-11T03:21:03.877Z,4.50
2019-02-11T03:22:07.516Z,4.10
2019-02-11T03:23:11.088Z,4.05
2019-02-11T03:24:14.662Z,4.50
2019-02-11T03:25:18.258Z,3.75
2019-02-11T03:26:21.859Z,3.98
2019-02-11T03:27:25.505Z,3.60
2019-02-11T03:28:29.100Z,3.95
2019-02-11T03:29:32.943Z,3.75
2019-02-11T03:30:36.607Z,4.20
2019-02-11T03:31:40.258Z,3.62
2019-02-11T03:32:43.872Z,4.00
2019-02-11T03:33:47.458Z,3.60
2019-02-11T03:34:51.044Z,3.62
2019-02-11T03:35:54.632Z,3.70
2019-02-11T03:36:58.263Z,3.30
2019-02-11T03:38:01.863Z,3.70
2019-02-11T03:39:06.676Z,3.80
2019-02-11T03:40:10.708Z,4.15
2019-02-11T03:41:14.325Z,4.15
2019-02-11T03:42:17.990Z,3.62
2019-02-11T03:43:21.564Z,3.90
2019-02-11T03:44:25.139Z,3.90
2019-02-11T03:45:28.789Z,4.30
2019-02-11T03:46:32.491Z,4.70
2019-02-11T03:47:36.099Z,4.60
2019-02-11T03:48:39.684Z,4.00
2019-02-11T03:49:43.269Z,3.90
2019-02-11T03:50:46.976Z,3.87
2019-02-11T03:51:50.557Z,3.77
2019-02-11T03:52:54.193Z,3.72
2019-02-11T03:53:57.868Z,4.10
2019-02-11T03:55:01.592Z,4.20
2019-02-11T03:56:05.308Z,4.15
2019-02-11T03:57:08.887Z,4.95
2019-02-11T03:58:12.544Z,4.17
2019-02-11T03:59:16.125Z,4.22
2019-02-11T04:00:19.766Z,3.30
2019-02-11T04:01:23.343Z,4.25
2019-02-11T04:02:26.943Z,4.47
2019-02-11T04:03:30.520Z,3.80
2019-02-11T04:04:34.107Z,3.45
2019-02-11T04:05:37.723Z,4.15
2019-02-11T04:06:41.338Z,3.90
2019-02-11T04:07:44.919Z,3.75
2019-02-11T04:08:48.538Z,3.62
2019-02-11T04:09:52.202Z,3.83
2019-02-11T04:10:55.788Z,3.67
2019-02-11T04:11:59.408Z,3.77
2019-02-11T04:13:03.053Z,4.00
2019-02-11T04:14:06.651Z,3.40
2019-02-11T04:15:10.366Z,3.90
2019-02-11T04:16:13.976Z,3.80
2019-02-11T04:17:17.625Z,3.55
2019-02-11T04:18:21.275Z,3.62
2019-02-11T04:19:24.855Z,3.72
2019-02-11T04:20:28.443Z,3.40
2019-02-11T04:21:32.039Z,3.00
2019-02-11T04:22:35.635Z,3.05
2019-02-11T04:23:39.263Z,3.00
2019-02-11T04:24:42.865Z,2.60
2019-02-11T04:25:46.482Z,2.80
2019-02-11T04:26:50.073Z,2.45
2019-02-11T04:27:53.680Z,2.70
2019-02-11T04:28:57.321Z,2.20
2019-02-11T04:30:00.881Z,2.20
2019-02-11T04:31:04.485Z,2.30
2019-02-11T04:32:08.086Z,2.27
2019-02-11T04:33:11.747Z,2.00
2019-02-11T04:34:15.361Z,2.00
2019-02-11T04:35:18.963Z,2.55
2019-02-11T04:36:22.564Z,2.10
2019-02-11T04:37:26.217Z,2.00
2019-02-11T04:38:29.810Z,2.15
2019-02-11T04:39:33.397Z,2.40
2019-02-11T04:40:36.973Z,2.15
2019-02-11T04:41:40.551Z,2.72
2019-02-11T04:42:44.236Z,2.33
2019-02-11T04:43:47.825Z,2.33
2019-02-11T04:44:51.425Z,2.25
2019-02-11T04:45:54.998Z,2.70
2019-02-11T04:46:58.585Z,1.92
2019-02-11T04:48:02.282Z,2.77
2019-02-11T04:49:05.850Z,2.35
2019-02-11T04:50:10.523Z,2.85
2019-02-11T04:51:14.077Z,2.50
2019-02-11T04:52:17.734Z,1.90
2019-02-11T04:53:21.370Z,2.22
2019-02-11T04:54:25.019Z,2.50
2019-02-11T04:55:28.600Z,2.30
2019-02-11T04:56:32.216Z,2.08
2019-02-11T04:57:35.872Z,1.95
2019-02-11T04:58:39.449Z,1.87
2019-02-11T04:59:43.057Z,2.70
2019-02-11T05:00:46.647Z,2.42
2019-02-11T05:01:50.240Z,2.10
2019-02-11T05:02:53.911Z,1.90
2019-02-11T05:03:57.480Z,2.05
2019-02-11T05:05:01.095Z,2.75
2019-02-11T05:06:04.742Z,2.30
2019-02-11T05:07:08.404Z,2.10
2019-02-11T05:08:12.041Z,2.70
2019-02-11T05:09:15.638Z,2.60
2019-02-11T05:10:19.214Z,2.08
2019-02-11T05:11:22.832Z,2.00
2019-02-11T05:12:26.427Z,2.42
2019-02-11T05:13:30.062Z,2.35
2019-02-11T05:14:43.249Z,2.02
2019-02-11T05:15:38.992Z,3.70
2019-02-11T05:16:42.636Z,2.40
2019-02-11T05:17:46.285Z,2.77
2019-02-11T05:18:50.006Z,2.40
2019-02-11T05:19:53.618Z,3.00
2019-02-11T05:20:57.196Z,2.30
2019-02-11T05:22:00.838Z,2.05
2019-02-11T05:23:04.466Z,2.12
2019-02-11T05:24:08.058Z,3.75
2019-02-11T05:25:11.786Z,4.90
2019-02-11T05:26:15.375Z,8.15
2019-02-11T05:27:19.018Z,5.25
2019-02-11T05:28:22.647Z,4.58
2019-02-11T05:29:26.233Z,4.75
2019-02-11T05:30:29.814Z,4.30
2019-02-11T05:31:33.438Z,3.67
2019-02-11T05:32:37.024Z,1.98
2019-02-11T05:33:40.637Z,2.15
2019-02-11T05:34:44.385Z,2.17
2019-02-11T05:35:48.005Z,2.50
2019-02-11T05:36:51.642Z,2.62
2019-02-11T05:37:55.315Z,2.00
2019-02-11T05:38:58.967Z,2.20
2019-02-11T05:40:02.593Z,1.70
2019-02-11T05:41:06.232Z,2.50
2019-02-11T05:42:09.816Z,2.27
2019-02-11T05:43:13.402Z,2.22
2019-02-11T05:44:16.984Z,1.95
2019-02-11T05:45:20.626Z,1.80
2019-02-11T05:46:24.314Z,2.05
2019-02-11T05:47:27.922Z,2.10
2019-02-11T05:48:31.586Z,1.90
2019-02-11T05:49:35.200Z,2.17
2019-02-11T05:50:38.885Z,1.90
2019-02-11T05:51:42.476Z,2.33
2019-02-11T05:52:46.053Z,2.60
2019-02-11T05:53:49.664Z,2.00
2019-02-11T05:54:53.287Z,2.70
2019-02-11T05:55:56.951Z,2.10
2019-02-11T05:57:00.583Z,2.12
2019-02-11T05:58:04.232Z,2.25
2019-02-11T05:59:07.810Z,1.98
2019-02-11T06:00:13.616Z,1.72
2019-02-11T06:01:18.534Z,2.15
2019-02-11T06:02:22.582Z,2.25
2019-02-11T06:03:26.181Z,2.25
2019-02-11T06:04:29.779Z,2.22
2019-02-11T06:05:33.402Z,2.20
2019-02-11T06:06:36.969Z,2.47
2019-02-11T06:07:40.576Z,2.62
2019-02-11T06:08:44.143Z,1.70
2019-02-11T06:09:47.728Z,2.55
2019-02-11T06:10:51.478Z,2.52
2019-02-11T06:11:55.125Z,1.90
2019-02-11T06:12:58.716Z,1.90
2019-02-11T06:14:02.298Z,1.67
2019-02-11T06:15:08.033Z,1.98
2019-02-11T06:16:11.761Z,1.98
2019-02-11T06:17:15.394Z,2.08
2019-02-11T06:18:18.972Z,1.52
2019-02-11T06:19:22.581Z,1.75
2019-02-11T06:20:26.154Z,2.08
2019-02-11T06:21:29.754Z,1.90
2019-02-11T06:22:33.377Z,2.10
2019-02-11T06:23:36.979Z,2.00
2019-02-11T06:24:40.594Z,2.08
2019-02-11T06:25:44.225Z,2.15
2019-02-11T06:26:47.824Z,1.70
2019-02-11T06:27:51.463Z,2.80
2019-02-11T06:28:55.102Z,2.45
2019-02-11T06:29:58.671Z,1.57
2019-02-11T06:31:02.271Z,1.77
2019-02-11T06:32:05.975Z,2.60
2019-02-11T06:33:09.722Z,2.25
2019-02-11T06:34:13.424Z,2.70
2019-02-11T06:35:17.003Z,2.40
2019-02-11T06:36:20.597Z,1.65
2019-02-11T06:37:30.053Z,1.30
2019-02-11T06:38:33.749Z,1.52
2019-02-11T06:39:37.356Z,1.90
2019-02-11T06:40:41.007Z,1.50
2019-02-11T06:41:44.629Z,2.15
2019-02-11T06:42:48.210Z,1.87
2019-02-11T06:43:51.901Z,1.67
2019-02-11T06:44:55.485Z,2.08
2019-02-11T06:45:59.083Z,1.60
2019-02-11T06:47:02.740Z,1.72
2019-02-11T06:48:06.375Z,1.65
2019-02-11T06:49:09.976Z,1.80
2019-02-11T06:50:16.807Z,2.30
2019-02-11T06:51:20.396Z,1.70
2019-02-11T06:52:24.000Z,1.42
2019-02-11T06:53:27.600Z,1.20
2019-02-11T06:54:31.257Z,1.57
2019-02-11T06:55:34.894Z,1.00
2019-02-11T06:56:38.556Z,1.90
2019-02-11T06:57:42.164Z,1.98
2019-02-11T06:58:45.742Z,1.72
2019-02-11T06:59:49.369Z,2.20
2019-02-11T07:00:52.961Z,1.45
2019-02-11T07:01:56.608Z,1.32
2019-02-11T07:03:00.208Z,1.30
2019-02-11T07:04:03.805Z,1.52
2019-02-11T07:05:08.239Z,1.20
2019-02-11T07:06:11.901Z,1.32
2019-02-11T07:07:15.535Z,1.30
2019-02-11T07:08:19.175Z,1.62
2019-02-11T07:09:22.822Z,1.30
2019-02-11T07:10:26.401Z,2.42
2019-02-11T07:11:29.985Z,1.77
2019-02-11T07:12:33.569Z,1.90
2019-02-11T07:13:37.202Z,1.60
2019-02-11T07:14:40.786Z,0.90
2019-02-11T07:15:44.401Z,1.35
2019-02-11T07:16:47.987Z,2.02
2019-02-11T07:17:51.559Z,1.35
2019-02-11T07:18:55.149Z,1.50
2019-02-11T07:19:58.781Z,1.80
2019-02-11T07:21:02.367Z,1.60
2019-02-11T07:22:06.047Z,1.90
2019-02-11T07:23:09.630Z,1.77
2019-02-11T07:24:13.217Z,2.08
2019-02-11T07:25:16.914Z,1.22
2019-02-11T07:26:20.501Z,1.52
2019-02-11T07:27:24.171Z,1.32
2019-02-11T07:28:27.814Z,1.32
2019-02-11T07:29:31.723Z,1.70
2019-02-11T07:30:35.470Z,1.32
2019-02-11T07:31:39.045Z,1.20
2019-02-11T07:32:42.703Z,1.65
2019-02-11T07:33:46.263Z,1.80
2019-02-11T07:34:49.885Z,1.62
2019-02-11T07:35:53.470Z,1.25
2019-02-11T07:36:57.056Z,1.15
2019-02-11T07:38:00.643Z,1.50
2019-02-11T07:39:07.335Z,1.10
2019-02-11T07:40:12.071Z,1.10
2019-02-11T07:41:15.709Z,1.30
2019-02-11T07:42:26.667Z,1.25
2019-02-11T07:43:31.889Z,1.27
2019-02-11T07:44:36.751Z,1.60
2019-02-11T07:45:44.643Z,2.05
2019-02-11T07:46:48.356Z,1.75
2019-02-11T07:47:51.931Z,1.37
2019-02-11T07:48:55.519Z,1.15
2019-02-11T07:49:59.176Z,1.20
2019-02-11T07:51:02.807Z,1.52
2019-02-11T07:52:06.446Z,1.32
2019-02-11T07:53:10.110Z,1.60
2019-02-11T07:54:13.724Z,1.42
2019-02-11T07:55:17.378Z,1.35
2019-02-11T07:56:20.957Z,1.50
2019-02-11T07:57:24.585Z,1.32
2019-02-11T07:58:28.181Z,1.40
2019-02-11T07:59:31.828Z,1.47
2019-02-11T08:00:35.477Z,1.52
2019-02-11T08:01:39.112Z,1.95
2019-02-11T08:02:42.699Z,1.42
2019-02-11T08:03:46.312Z,2.00
2019-02-11T08:04:49.895Z,1.10
2019-02-11T08:05:53.479Z,2.15
2019-02-11T08:06:57.063Z,1.45
2019-02-11T08:08:00.647Z,1.60
2019-02-11T08:09:06.767Z,1.32
2019-02-11T08:10:10.494Z,1.37
2019-02-11T08:11:14.106Z,1.85
2019-02-11T08:12:17.770Z,1.70
2019-02-11T08:13:21.418Z,2.22
2019-02-11T08:14:25.121Z,2.58
2019-02-11T08:15:28.719Z,1.50
2019-02-11T08:16:32.335Z,1.72
2019-02-11T08:17:35.983Z,2.20
2019-02-11T08:18:39.575Z,2.02
2019-02-11T08:19:43.199Z,2.90
2019-02-11T08:20:46.852Z,2.33
2019-02-11T08:21:50.527Z,1.87
2019-02-11T08:22:54.199Z,2.20
2019-02-11T08:23:57.781Z,1.60
2019-02-11T08:25:01.361Z,2.50
2019-02-11T08:26:06.223Z,1.55
2019-02-11T08:27:09.889Z,1.50
2019-02-11T08:28:19.382Z,1.72
2019-02-11T08:29:18.700Z,1.90
2019-02-11T08:30:22.479Z,1.80
2019-02-11T08:31:26.076Z,2.33
2019-02-11T08:32:29.666Z,1.60
2019-02-11T08:33:33.268Z,2.15
2019-02-11T08:34:36.843Z,1.55
2019-02-11T08:35:40.539Z,2.52
2019-02-11T08:36:44.230Z,2.08
2019-02-11T08:37:47.802Z,2.20
2019-02-11T08:38:51.402Z,1.75
2019-02-11T08:39:54.982Z,1.77
2019-02-11T08:40:58.661Z,1.90
2019-02-11T08:42:02.235Z,2.50
2019-02-11T08:43:05.806Z,2.50
2019-02-11T08:44:09.386Z,2.83
2019-02-11T08:45:13.046Z,2.58
2019-02-11T08:46:16.703Z,2.37
2019-02-11T08:47:20.278Z,1.50
2019-02-11T08:48:23.912Z,2.30
2019-02-11T08:49:27.499Z,2.87
2019-02-11T08:50:31.094Z,2.50
2019-02-11T08:51:34.726Z,2.70
2019-02-11T08:52:38.375Z,2.40
2019-02-11T08:53:41.940Z,2.72
2019-02-11T08:54:45.571Z,2.17
2019-02-11T08:55:49.144Z,2.20
2019-02-11T08:56:52.751Z,2.20
2019-02-11T08:57:56.380Z,1.90
2019-02-11T08:59:00.031Z,2.30
2019-02-11T09:00:06.554Z,2.83
2019-02-11T09:01:10.187Z,2.65
2019-02-11T09:02:13.793Z,2.33
2019-02-11T09:03:17.444Z,2.70
2019-02-11T09:04:21.028Z,2.20
2019-02-11T09:05:24.645Z,2.47
2019-02-11T09:06:28.228Z,2.55
2019-02-11T09:07:31.808Z,2.90
2019-02-11T09:08:35.448Z,2.05
2019-02-11T09:09:39.167Z,2.27
2019-02-11T09:10:42.765Z,2.33
2019-02-11T09:11:46.412Z,2.30
2019-02-11T09:12:50.001Z,1.92
2019-02-11T09:13:53.605Z,2.55
2019-02-11T09:14:57.330Z,2.20
2019-02-11T09:16:00.937Z,2.08
2019-02-11T09:17:10.063Z,2.58
2019-02-11T09:18:09.858Z,2.00
2019-02-11T09:19:13.469Z,2.92
2019-02-11T09:20:17.115Z,1.90
2019-02-11T09:21:20.689Z,1.82
2019-02-11T09:22:24.330Z,2.50
2019-02-11T09:23:27.982Z,1.77
2019-02-11T09:24:31.602Z,2.15
2019-02-11T09:25:35.225Z,3.52
2019-02-11T09:26:38.802Z,2.52
2019-02-11T09:27:42.400Z,2.87
2019-02-11T09:28:46.002Z,2.45
2019-02-11T09:29:49.618Z,1.75
2019-02-11T09:30:53.230Z,2.50
2019-02-11T09:31:56.850Z,2.20
2019-02-11T09:33:00.434Z,2.50
2019-02-11T09:34:04.119Z,2.10
2019-02-11T09:35:07.765Z,2.27
2019-02-11T09:36:11.441Z,2.80
2019-02-11T09:37:15.012Z,2.42
2019-02-11T09:38:18.636Z,3.00
2019-02-11T09:39:22.236Z,2.22
2019-02-11T09:40:25.882Z,2.37
2019-02-11T09:41:29.461Z,2.52
2019-02-11T09:42:33.047Z,2.12
2019-02-11T09:43:36.704Z,2.30
2019-02-11T09:44:40.300Z,2.42
2019-02-11T09:45:43.942Z,2.00
2019-02-11T09:46:47.511Z,2.30
2019-02-11T09:47:51.184Z,2.67
2019-02-11T09:48:54.831Z,2.35
2019-02-11T09:50:12.548Z,2.58
2019-02-11T09:51:16.620Z,2.25
2019-02-11T09:52:20.207Z,2.20
2019-02-11T09:53:23.787Z,2.08
2019-02-11T09:54:27.383Z,1.70
2019-02-11T09:55:33.139Z,1.95
2019-02-11T09:56:36.960Z,1.82
2019-02-11T09:57:40.723Z,2.02
2019-02-11T09:58:44.341Z,1.90
2019-02-11T09:59:47.916Z,1.80
2019-02-11T10:00:51.629Z,1.90
2019-02-11T10:01:55.227Z,1.75
2019-02-11T10:02:58.865Z,1.87
2019-02-11T10:04:02.477Z,1.90
2019-02-11T10:05:06.718Z,1.65
2019-02-11T10:06:10.324Z,2.00
2019-02-11T10:07:13.906Z,1.47
2019-02-11T10:08:17.681Z,2.10
2019-02-11T10:09:21.295Z,1.40
2019-02-11T10:10:24.905Z,1.70
2019-02-11T10:11:28.505Z,1.45
2019-02-11T10:12:32.120Z,1.35
2019-02-11T10:13:35.729Z,1.42
2019-02-11T10:14:39.341Z,1.67
2019-02-11T10:15:42.907Z,1.70
2019-02-11T10:16:46.492Z,1.62
2019-02-11T10:17:50.094Z,1.40
2019-02-11T10:18:53.736Z,1.57
2019-02-11T10:19:57.338Z,1.57
2019-02-11T10:21:00.926Z,1.65
2019-02-11T10:22:04.552Z,1.22
2019-02-11T10:23:08.139Z,1.50
2019-02-11T10:24:11.741Z,1.27
2019-02-11T10:25:24.245Z,1.25
2019-02-11T10:26:27.866Z,1.30
2019-02-11T10:27:31.443Z,1.07
2019-02-11T10:28:35.054Z,1.45
2019-02-11T10:29:38.627Z,1.10
2019-02-11T10:30:42.237Z,1.32
2019-02-11T10:31:45.869Z,1.30
2019-02-11T10:32:49.448Z,1.52
2019-02-11T10:33:53.093Z,1.70
2019-02-11T10:34:56.668Z,1.20
2019-02-11T10:36:00.282Z,1.22
2019-02-11T10:37:03.936Z,1.62
2019-02-11T10:38:07.584Z,1.02
2019-02-11T10:39:11.248Z,1.50
2019-02-11T10:40:14.962Z,2.00
2019-02-11T10:41:18.883Z,1.40
2019-02-11T10:42:22.476Z,1.90
2019-02-11T10:43:26.140Z,1.40
2019-02-11T10:44:29.726Z,1.52
2019-02-11T10:45:36.573Z,1.75
2019-02-11T10:46:38.573Z,1.95
2019-02-11T10:47:43.983Z,1.50
2019-02-11T10:48:47.587Z,2.52
2019-02-11T10:49:51.182Z,1.72
2019-02-11T10:50:54.863Z,2.22
2019-02-11T10:51:58.442Z,1.98
2019-02-11T10:53:02.034Z,2.35
2019-02-11T10:54:05.687Z,1.70
2019-02-11T10:55:11.914Z,1.70
2019-02-11T10:56:15.646Z,1.70
2019-02-11T10:57:19.377Z,1.82
2019-02-11T10:58:22.948Z,1.82
2019-02-11T10:59:26.535Z,2.37
2019-02-11T11:00:30.372Z,1.90
2019-02-11T11:01:33.993Z,2.05
2019-02-11T11:02:37.624Z,1.82
2019-02-11T11:03:41.223Z,2.15
2019-02-11T11:04:44.822Z,2.27
2019-02-11T11:05:48.549Z,2.20
2019-02-11T11:06:52.184Z,1.95
2019-02-11T11:07:55.829Z,2.22
2019-02-11T11:08:59.422Z,2.22
2019-02-11T11:10:03.192Z,2.70
2019-02-11T11:11:06.883Z,2.30
2019-02-11T11:12:10.495Z,2.27
2019-02-11T11:13:14.155Z,2.00
2019-02-11T11:14:17.754Z,2.02
2019-02-11T11:15:21.608Z,2.20
2019-02-11T11:16:29.670Z,2.02
2019-02-11T11:17:30.462Z,2.47
2019-02-11T11:18:34.956Z,2.30
2019-02-11T11:19:38.552Z,2.30
2019-02-11T11:20:42.178Z,2.05
2019-02-11T11:21:45.969Z,2.00
2019-02-11T11:22:49.614Z,1.80
2019-02-11T11:23:53.241Z,2.40
2019-02-11T11:24:56.801Z,2.15
2019-02-11T11:26:00.386Z,2.02
2019-02-11T11:27:04.041Z,2.10
2019-02-11T11:28:07.634Z,2.17
2019-02-11T11:29:11.264Z,1.67
2019-02-11T11:30:18.875Z,1.85
2019-02-11T11:31:22.576Z,2.10
2019-02-11T11:32:26.151Z,1.72
2019-02-11T11:33:29.758Z,2.95
2019-02-11T11:34:33.353Z,2.55
2019-02-11T11:35:37.062Z,2.60
2019-02-11T11:36:40.761Z,2.12
2019-02-11T11:37:44.413Z,2.05
2019-02-11T11:38:48.028Z,2.30
2019-02-11T11:39:51.610Z,1.52
2019-02-11T11:40:55.191Z,2.62
2019-02-11T11:41:58.846Z,2.42
2019-02-11T11:43:02.424Z,2.35
2019-02-11T11:44:06.005Z,2.20
2019-02-11T11:45:12.318Z,2.08
2019-02-11T11:46:15.973Z,2.08
2019-02-11T11:47:19.624Z,2.50
2019-02-11T11:48:23.293Z,1.90
2019-02-11T11:49:26.896Z,2.05
2019-02-11T11:50:30.486Z,1.95
2019-02-11T11:51:34.074Z,2.02
2019-02-11T11:52:37.726Z,2.02
2019-02-11T11:53:41.328Z,1.92
2019-02-11T11:54:44.901Z,1.98
2019-02-11T11:55:48.515Z,2.05
2019-02-11T11:56:52.115Z,2.65
2019-02-11T11:57:55.815Z,1.95
2019-02-11T11:58:59.503Z,1.50
2019-02-11T12:00:04.950Z,1.22
2019-02-11T12:01:08.897Z,1.90
2019-02-11T12:02:15.861Z,1.80
2019-02-11T12:03:17.845Z,1.90
2019-02-11T12:04:21.583Z,1.90
2019-02-11T12:05:25.510Z,1.90
2019-02-11T12:06:29.094Z,1.90
2019-02-11T12:07:32.749Z,2.98
2019-02-11T12:08:36.386Z,1.62
2019-02-11T12:09:43.693Z,1.80
2019-02-11T12:10:45.198Z,1.65
2019-02-11T12:11:48.793Z,1.85
2019-02-11T12:12:52.458Z,1.80
2019-02-11T12:13:56.080Z,1.85
2019-02-11T12:14:59.713Z,2.47
2019-02-11T12:16:03.352Z,1.75
2019-02-11T12:17:07.031Z,2.17
2019-02-11T12:18:10.618Z,2.10
2019-02-11T12:19:14.260Z,2.10
2019-02-11T12:20:17.849Z,1.55
2019-02-11T12:21:21.482Z,2.87
2019-02-11T12:22:25.080Z,2.75
2019-02-11T12:23:28.705Z,2.12
2019-02-11T12:24:32.348Z,1.85
2019-02-11T12:25:35.959Z,2.75
2019-02-11T12:26:39.572Z,2.10
2019-02-11T12:27:43.235Z,2.25
2019-02-11T12:28:46.857Z,2.37
2019-02-11T12:29:50.485Z,2.02
2019-02-11T12:30:54.071Z,1.90
2019-02-11T12:31:57.645Z,1.65
2019-02-11T12:33:01.297Z,1.60
2019-02-11T12:34:04.854Z,1.37
2019-02-11T12:35:11.614Z,1.10
2019-02-11T12:36:15.260Z,0.93
2019-02-11T12:37:18.934Z,0.88
2019-02-11T12:38:22.641Z,1.42
2019-02-11T12:39:26.242Z,1.40
2019-02-11T12:40:29.853Z,1.05
2019-02-11T12:41:33.467Z,1.40
2019-02-11T12:42:37.037Z,1.50
2019-02-11T12:43:40.710Z,1.00
2019-02-11T12:44:44.286Z,1.30
2019-02-11T12:45:47.865Z,1.42
2019-02-11T12:46:51.471Z,1.07
2019-02-11T12:47:55.099Z,1.32
2019-02-11T12:49:01.643Z,1.80
2019-02-11T12:50:05.842Z,1.25
2019-02-11T12:51:09.430Z,1.30
2019-02-11T12:52:13.019Z,1.70
2019-02-11T12:53:16.708Z,1.10
2019-02-11T12:54:20.280Z,1.10
2019-02-11T12:55:23.868Z,1.42
2019-02-11T12:56:27.454Z,1.45
2019-02-11T12:57:31.105Z,1.45
2019-02-11T12:58:34.709Z,1.30
2019-02-11T12:59:38.278Z,1.55
2019-02-11T13:00:41.869Z,1.90
2019-02-11T13:01:45.447Z,1.30
2019-02-11T13:02:49.157Z,1.80
2019-02-11T13:03:52.762Z,1.70
2019-02-11T13:04:56.350Z,1.80
2019-02-11T13:05:59.947Z,1.60
2019-02-11T13:07:03.602Z,1.35
2019-02-11T13:08:07.246Z,1.85
2019-02-11T13:09:10.824Z,2.35
2019-02-11T13:10:16.668Z,1.32
2019-02-11T13:11:20.302Z,1.80
2019-02-11T13:12:23.907Z,1.52
2019-02-11T13:13:27.569Z,1.50
2019-02-11T13:14:31.170Z,1.55
2019-02-11T13:15:58.929Z,2.00
2019-02-11T13:16:40.086Z,1.40
2019-02-11T13:17:43.789Z,1.98
2019-02-11T13:18:47.378Z,2.08
2019-02-11T13:20:06.634Z,1.98
2019-02-11T13:20:56.309Z,2.05
2019-02-11T13:21:59.903Z,1.60
2019-02-11T13:23:03.574Z,2.33
2019-02-11T13:24:07.175Z,1.40
2019-02-11T13:25:13.019Z,1.77
2019-02-11T13:26:16.613Z,2.10
2019-02-11T13:27:20.209Z,1.80
2019-02-11T13:28:23.894Z,2.30
2019-02-11T13:29:27.540Z,1.95
2019-02-11T13:30:31.150Z,1.65
2019-02-11T13:31:34.905Z,2.25
2019-02-11T13:32:38.490Z,2.10
2019-02-11T13:33:42.131Z,2.00
2019-02-11T13:34:45.733Z,1.92
2019-02-11T13:35:49.343Z,2.20
2019-02-11T13:36:52.952Z,2.95
2019-02-11T13:37:56.674Z,2.02
2019-02-11T13:39:00.266Z,2.05
2019-02-11T13:40:04.216Z,2.27
2019-02-11T13:41:07.791Z,1.67
2019-02-11T13:42:11.450Z,1.87
2019-02-11T13:43:15.124Z,2.20
2019-02-11T13:44:18.815Z,1.80
2019-02-11T13:45:22.682Z,1.85
2019-02-11T13:46:26.255Z,2.60
2019-02-11T13:47:29.856Z,2.20
2019-02-11T13:48:34.485Z,2.58
2019-02-11T13:49:38.449Z,2.20
2019-02-11T13:50:42.256Z,2.22
2019-02-11T13:51:45.865Z,2.27
2019-02-11T13:52:50.300Z,2.52
2019-02-11T13:53:53.895Z,2.70
2019-02-11T13:54:57.486Z,1.65
2019-02-11T13:56:04.790Z,1.67
2019-02-11T13:57:06.550Z,1.35
2019-02-11T13:58:10.290Z,1.72
2019-02-11T13:59:13.958Z,1.37
2019-02-11T14:00:21.808Z,1.80
2019-02-11T14:01:25.499Z,1.67
2019-02-11T14:02:29.143Z,1.27
2019-02-11T14:03:32.800Z,1.47
2019-02-11T14:04:36.411Z,1.57
2019-02-11T14:05:40.038Z,1.35
2019-02-11T14:06:43.638Z,1.57
2019-02-11T14:07:47.225Z,1.60
2019-02-11T14:08:50.830Z,1.67